Time;durP1;ratioP1;P1;durP2;ratioP2;P2;SDS_P1;SDS_P2;PMS_P1;PMS_P2;Temp;Humidity;BMP_temperature;BMP_pressure;BME280_temperature;BME280_humidity;BME280_pressure;Samples;Min_cycle;Max_cycle;Signal;HPM_P1;HPM_P2
2021/12/13 00:01:45;;;;;;;15.10;8.23;;;;;;;;;;5009709;28;20168;-74
2021/12/13 00:04:22;;;;;;;13.05;7.15;;;;;;;;;;5009483;28;20826;-76
2021/12/13 00:06:51;;;;;;;12.02;7.32;;;;;;;;;;5009766;28;20022;-75
2021/12/13 00:09:21;;;;;;;12.82;7.55;;;;;;;;;;5009256;28;20026;-75
2021/12/13 00:11:52;;;;;;;11.07;7.03;;;;;;;;;;5009673;28;20079;-77
2021/12/13 00:14:33;;;;;;;11.65;7.45;;;;;;;;;;5009248;28;20025;-75
2021/12/13 00:17:05;;;;;;;10.65;6.85;;;;;;;;;;5009699;28;20018;-75
2021/12/13 00:19:42;;;;;;;12.77;6.75;;;;;;;;;;5009450;28;20026;-75
2021/12/13 00:22:13;;;;;;;10.82;6.65;;;;;;;;;;5009439;28;20036;-76
2021/12/13 00:24:41;;;;;;;12.85;6.97;;;;;;;;;;5009577;28;20022;-75
2021/12/13 00:27:10;;;;;;;12.10;7.68;;;;;;;;;;5009533;28;20030;-75
2021/12/13 00:29:49;;;;;;;12.48;7.88;;;;;;;;;;5009061;28;20022;-75
2021/12/13 00:32:22;;;;;;;11.57;7.53;;;;;;;;;;5009425;28;20384;-77
2021/12/13 00:34:56;;;;;;;10.45;7.25;;;;;;;;;;5009482;28;20435;-76
2021/12/13 00:37:35;;;;;;;13.38;7.55;;;;;;;;;;5009105;28;20057;-75
2021/12/13 00:40:22;;;;;;;12.63;7.43;;;;;;;;;;5009469;28;20034;-75
2021/12/13 00:43:08;;;;;;;10.15;6.97;;;;;;;;;;5009328;28;20025;-75
2021/12/13 00:45:38;;;;;;;14.60;7.15;;;;;;;;;;5009392;28;20495;-75
2021/12/13 00:48:06;;;;;;;11.52;6.78;;;;;;;;;;5008889;28;20106;-77
2021/12/13 00:50:36;;;;;;;12.80;7.18;;;;;;;;;;5009254;28;20032;-75
2021/12/13 00:53:03;;;;;;;10.57;7.35;;;;;;;;;;5009013;28;20479;-75
2021/12/13 00:55:32;;;;;;;11.73;7.43;;;;;;;;;;5009244;28;20041;-75
2021/12/13 00:58:03;;;;;;;14.93;7.88;;;;;;;;;;5008808;28;20022;-75
2021/12/13 01:00:33;;;;;;;10.80;7.20;;;;;;;;;;5007907;28;20029;-75
2021/12/13 01:03:11;;;;;;;13.80;8.25;;;;;;;;;;5009144;28;20384;-76
2021/12/13 01:06:01;;;;;;;12.00;7.50;;;;;;;;;;5009371;28;20085;-75
2021/12/13 01:08:41;;;;;;;12.75;7.47;;;;;;;;;;5011968;28;20521;-76
2021/12/13 01:11:13;;;;;;;11.68;7.47;;;;;;;;;;5012943;28;20479;-76
2021/12/13 01:14:11;;;;;;;11.45;7.50;;;;;;;;;;5012594;28;20036;-76
2021/12/13 01:22:39;;;;;;;12.80;7.50;;;;;;;;;;5012655;28;20036;-75
2021/12/13 01:28:13;;;;;;;12.52;6.78;;;;;;;;;;5012093;28;20026;-76
2021/12/13 01:30:47;;;;;;;11.82;6.60;;;;;;;;;;5011068;28;20032;-75
2021/12/13 01:33:14;;;;;;;14.15;7.43;;;;;;;;;;5011997;28;20053;-76
2021/12/13 01:35:44;;;;;;;13.30;7.82;;;;;;;;;;5012261;28;20029;-76
2021/12/13 01:38:33;;;;;;;13.15;6.82;;;;;;;;;;5010630;28;20025;-75
2021/12/13 01:41:08;;;;;;;13.00;7.65;;;;;;;;;;5012475;28;20100;-75
2021/12/13 01:43:37;;;;;;;13.38;7.53;;;;;;;;;;5012168;28;20476;-75
2021/12/13 01:46:02;;;;;;;12.40;7.47;;;;;;;;;;5011967;28;20032;-75
2021/12/13 01:48:35;;;;;;;13.68;7.20;;;;;;;;;;5011551;28;20113;-76
2021/12/13 01:51:06;;;;;;;14.98;7.78;;;;;;;;;;5012155;28;20435;-75
2021/12/13 01:53:42;;;;;;;10.32;6.78;;;;;;;;;;5011672;28;20054;-75
2021/12/13 01:56:36;;;;;;;13.82;7.22;;;;;;;;;;5011918;28;20276;-76
2021/12/13 01:59:16;;;;;;;13.07;7.53;;;;;;;;;;5011584;28;20447;-75
2021/12/13 02:01:43;;;;;;;12.40;6.90;;;;;;;;;;5011710;28;20032;-75
2021/12/13 02:04:13;;;;;;;11.98;6.78;;;;;;;;;;5011577;28;20088;-75
2021/12/13 02:06:49;;;;;;;12.40;7.22;;;;;;;;;;5011691;28;20025;-75
2021/12/13 02:09:17;;;;;;;10.90;6.70;;;;;;;;;;5011144;28;20492;-76
2021/12/13 02:11:46;;;;;;;11.45;6.85;;;;;;;;;;5011824;28;20241;-76
2021/12/13 02:14:19;;;;;;;12.60;6.93;;;;;;;;;;5011348;28;20084;-75
2021/12/13 02:17:12;;;;;;;11.40;7.10;;;;;;;;;;5011656;28;20100;-74
2021/12/13 02:19:49;;;;;;;13.65;7.38;;;;;;;;;;5009171;28;20040;-75
2021/12/13 02:22:29;;;;;;;13.68;7.18;;;;;;;;;;5011474;28;20041;-75
2021/12/13 02:24:57;;;;;;;13.93;7.15;;;;;;;;;;5011450;28;20026;-75
2021/12/13 02:27:27;;;;;;;11.35;7.03;;;;;;;;;;5011120;28;20160;-75
2021/12/13 02:29:57;;;;;;;13.45;7.38;;;;;;;;;;5010884;28;20033;-75
2021/12/13 02:32:27;;;;;;;13.95;7.38;;;;;;;;;;5011492;28;20022;-76
2021/12/13 02:34:57;;;;;;;11.40;7.18;;;;;;;;;;5011059;28;20022;-75
2021/12/13 02:37:25;;;;;;;11.32;6.45;;;;;;;;;;5011141;28;20033;-76
2021/12/13 02:39:56;;;;;;;12.52;7.72;;;;;;;;;;5010886;28;20025;-75
2021/12/13 02:42:22;;;;;;;12.27;7.10;;;;;;;;;;5009678;28;20021;-75
2021/12/13 02:44:52;;;;;;;13.85;7.22;;;;;;;;;;5010680;28;20092;-75
2021/12/13 02:47:33;;;;;;;14.65;8.35;;;;;;;;;;5010855;28;20431;-75
2021/12/13 02:50:00;;;;;;;15.63;8.23;;;;;;;;;;5010539;28;20030;-75
2021/12/13 02:52:27;;;;;;;12.98;7.53;;;;;;;;;;5010790;28;20029;-75
2021/12/13 02:54:57;;;;;;;12.23;6.90;;;;;;;;;;5010593;28;20073;-76
2021/12/13 02:57:31;;;;;;;13.85;7.85;;;;;;;;;;5010889;28;20128;-75
2021/12/13 03:00:15;;;;;;;11.65;7.57;;;;;;;;;;5010483;28;20096;-75
2021/12/13 03:02:44;;;;;;;12.20;6.80;;;;;;;;;;5011070;28;20029;-76
2021/12/13 03:05:16;;;;;;;14.02;7.22;;;;;;;;;;5008900;28;20129;-75
2021/12/13 03:07:47;;;;;;;14.27;6.95;;;;;;;;;;5033803;22;20441;-74
2021/12/13 03:10:25;;;;;;;12.70;6.85;;;;;;;;;;5009169;28;20487;-74
2021/12/13 03:12:50;;;;;;;13.35;6.95;;;;;;;;;;5010412;28;20073;-74
2021/12/13 03:15:21;;;;;;;14.15;7.45;;;;;;;;;;5010214;28;20386;-74
2021/12/13 03:17:49;;;;;;;13.23;7.43;;;;;;;;;;5010079;28;20037;-74
2021/12/13 03:20:26;;;;;;;14.48;8.30;;;;;;;;;;5009898;28;20029;-74
2021/12/13 03:23:03;;;;;;;14.85;7.88;;;;;;;;;;5010208;28;20057;-74
2021/12/13 03:26:15;;;;;;;14.32;7.38;;;;;;;;;;5008815;28;20105;-74
2021/12/13 03:29:11;;;;;;;15.82;7.60;;;;;;;;;;5009799;28;20514;-74
2021/12/13 03:31:44;;;;;;;18.23;7.90;;;;;;;;;;5010237;28;20435;-74
2021/12/13 03:34:32;;;;;;;17.55;8.40;;;;;;;;;;5010214;28;20399;-74
2021/12/13 03:37:06;;;;;;;17.67;8.38;;;;;;;;;;5010462;28;20041;-74
2021/12/13 03:39:32;;;;;;;16.65;8.43;;;;;;;;;;5009741;28;20403;-74
2021/12/13 03:41:59;;;;;;;16.67;8.80;;;;;;;;;;5010132;28;20036;-74
2021/12/13 03:44:32;;;;;;;18.63;8.18;;;;;;;;;;5009918;28;20021;-74
2021/12/13 03:47:07;;;;;;;19.25;8.10;;;;;;;;;;5009850;28;20140;-74
2021/12/13 03:49:39;;;;;;;19.98;9.60;;;;;;;;;;5009378;28;20052;-74
2021/12/13 03:52:07;;;;;;;18.75;9.05;;;;;;;;;;5009821;28;20040;-74
2021/12/13 03:54:37;;;;;;;17.23;8.23;;;;;;;;;;5009610;28;20060;-74
2021/12/13 03:57:03;;;;;;;16.90;8.57;;;;;;;;;;5009742;28;20037;-74
2021/12/13 03:59:28;;;;;;;19.23;8.60;;;;;;;;;;5009187;28;20133;-74
2021/12/13 04:02:01;;;;;;;14.02;7.85;;;;;;;;;;5009509;28;20037;-74
2021/12/13 04:04:40;;;;;;;;;;;;;;;;;;5010060;28;20104;-74
2021/12/13 04:07:14;;;;;;;17.63;8.45;;;;;;;;;;5009798;28;20079;-74
2021/12/13 04:09:42;;;;;;;15.43;8.30;;;;;;;;;;5009228;28;20411;-74
2021/12/13 04:12:08;;;;;;;15.65;7.65;;;;;;;;;;5009508;28;20051;-75
2021/12/13 04:14:40;;;;;;;16.10;8.00;;;;;;;;;;5009393;28;20014;-74
2021/12/13 04:17:37;;;;;;;18.35;8.40;;;;;;;;;;5009352;28;20111;-74
2021/12/13 04:20:11;;;;;;;14.15;7.70;;;;;;;;;;5009488;28;20506;-74
2021/12/13 04:22:40;;;;;;;16.80;8.05;;;;;;;;;;5009317;28;20037;-74
2021/12/13 04:25:12;;;;;;;13.35;7.75;;;;;;;;;;5009251;28;20041;-74
2021/12/13 04:28:02;;;;;;;15.23;8.52;;;;;;;;;;5009351;28;20030;-74
2021/12/13 04:30:40;;;;;;;15.45;7.72;;;;;;;;;;5009225;28;20108;-74
2021/12/13 04:33:11;;;;;;;14.05;7.80;;;;;;;;;;5009420;28;20479;-74
2021/12/13 04:35:37;;;;;;;14.95;8.10;;;;;;;;;;5009360;28;20030;-74
2021/12/13 04:38:05;;;;;;;16.33;8.23;;;;;;;;;;5009144;28;20503;-75
2021/12/13 04:40:36;;;;;;;14.55;7.68;;;;;;;;;;5009131;28;20052;-74
2021/12/13 04:43:04;;;;;;;14.15;7.75;;;;;;;;;;5012310;28;20084;-75
2021/12/13 04:45:31;;;;;;;14.85;7.57;;;;;;;;;;5012989;28;20026;-74
2021/12/13 04:48:10;;;;;;;15.20;7.78;;;;;;;;;;5011512;28;20029;-74
2021/12/13 04:50:55;;;;;;;14.60;7.97;;;;;;;;;;5012872;28;20064;-74
2021/12/13 04:53:31;;;;;;;13.13;7.60;;;;;;;;;;5012933;28;20108;-74
2021/12/13 04:55:59;;;;;;;15.05;7.72;;;;;;;;;;5012746;28;20030;-75
2021/12/13 04:58:25;;;;;;;11.55;7.72;;;;;;;;;;5012508;28;20030;-74
2021/12/13 05:00:57;;;;;;;13.05;7.43;;;;;;;;;;5012897;28;20037;-74
2021/12/13 05:03:27;;;;;;;12.65;7.45;;;;;;;;;;5012700;28;20054;-74
2021/12/13 05:05:52;;;;;;;12.57;8.13;;;;;;;;;;5012533;28;20041;-74
2021/12/13 05:08:20;;;;;;;11.60;6.75;;;;;;;;;;5012342;28;20033;-74
2021/12/13 05:10:48;;;;;;;12.13;7.40;;;;;;;;;;5012444;28;20034;-74
2021/12/13 05:13:18;;;;;;;11.95;7.13;;;;;;;;;;5011239;28;20057;-74
2021/12/13 05:15:52;;;;;;;13.00;6.75;;;;;;;;;;5012410;28;20041;-74
2021/12/13 05:18:21;;;;;;;13.27;7.25;;;;;;;;;;5012286;28;20153;-74
2021/12/13 05:20:49;;;;;;;11.98;6.78;;;;;;;;;;5012263;28;20030;-74
2021/12/13 05:23:22;;;;;;;11.07;6.65;;;;;;;;;;5010965;28;20113;-74
2021/12/13 05:25:58;;;;;;;11.85;7.30;;;;;;;;;;5012433;28;20033;-74
2021/12/13 05:28:28;;;;;;;12.27;7.55;;;;;;;;;;5012188;28;20030;-74
2021/12/13 05:31:01;;;;;;;11.90;6.90;;;;;;;;;;5012616;28;20399;-74
2021/12/13 05:33:30;;;;;;;10.80;6.85;;;;;;;;;;5012540;28;20494;-74
2021/12/13 05:36:00;;;;;;;11.93;6.97;;;;;;;;;;5012092;28;20041;-74
2021/12/13 05:38:31;;;;;;;11.68;6.93;;;;;;;;;;5012104;28;20084;-74
2021/12/13 05:40:59;;;;;;;10.82;6.80;;;;;;;;;;5012192;28;20024;-74
2021/12/13 05:43:25;;;;;;;11.55;7.10;;;;;;;;;;5012039;28;20494;-74
2021/12/13 05:45:59;;;;;;;11.95;7.10;;;;;;;;;;5010682;28;20049;-74
2021/12/13 05:48:49;;;;;;;12.52;7.45;;;;;;;;;;5011827;28;20026;-74
2021/12/13 05:51:23;;;;;;;13.23;7.18;;;;;;;;;;5011973;28;20044;-74
2021/12/13 05:54:02;;;;;;;12.02;7.57;;;;;;;;;;5012180;28;20021;-74
2021/12/13 05:56:35;;;;;;;12.95;7.68;;;;;;;;;;5011779;28;20034;-74
2021/12/13 05:59:35;;;;;;;12.88;7.50;;;;;;;;;;5011791;28;20030;-74
2021/12/13 06:02:06;;;;;;;11.30;7.32;;;;;;;;;;4989349;28;20505;-74
2021/12/13 06:04:31;;;;;;;9.90;5.80;;;;;;;;;;5011672;28;20042;-73
2021/12/13 06:06:57;;;;;;;11.05;6.93;;;;;;;;;;5011514;28;20025;-74
2021/12/13 06:10:15;;;;;;;13.75;7.32;;;;;;;;;;5011228;28;20539;-74
2021/12/13 06:12:52;;;;;;;11.20;7.18;;;;;;;;;;4993844;28;20056;-74
2021/12/13 06:15:20;;;;;;;13.40;7.45;;;;;;;;;;5011608;28;20064;-74
2021/12/13 06:17:56;;;;;;;14.20;7.32;;;;;;;;;;5011275;28;20113;-73
2021/12/13 06:20:33;;;;;;;10.80;7.13;;;;;;;;;;5011533;28;20144;-73
2021/12/13 06:23:13;;;;;;;12.73;7.40;;;;;;;;;;5011660;28;20022;-74
2021/12/13 06:25:41;;;;;;;11.45;7.18;;;;;;;;;;5011426;28;20026;-73
2021/12/13 06:28:16;;;;;;;11.23;6.82;;;;;;;;;;5011028;28;20033;-74
2021/12/13 06:30:42;;;;;;;12.63;7.80;;;;;;;;;;5011429;28;20044;-73
2021/12/13 06:33:10;;;;;;;13.60;8.07;;;;;;;;;;5011007;28;20034;-74
2021/12/13 06:35:58;;;;;;;11.77;7.50;;;;;;;;;;5011017;28;20096;-73
2021/12/13 06:38:48;;;;;;;13.55;7.95;;;;;;;;;;5010699;28;20029;-73
2021/12/13 06:41:25;;;;;;;12.70;7.00;;;;;;;;;;5011082;28;20026;-74
2021/12/13 06:43:56;;;;;;;10.23;7.07;;;;;;;;;;5010687;28;20032;-73
2021/12/13 06:46:22;;;;;;;13.23;7.93;;;;;;;;;;5010627;28;20087;-74
2021/12/13 06:48:50;;;;;;;13.20;7.60;;;;;;;;;;5010626;28;20104;-73
2021/12/13 06:51:18;;;;;;;11.77;7.38;;;;;;;;;;5004913;28;20018;-76
2021/12/13 06:54:04;;;;;;;11.52;7.78;;;;;;;;;;4998438;28;20246;-75
2021/12/13 06:56:33;;;;;;;11.65;7.20;;;;;;;;;;5006544;28;20026;-75
2021/12/13 06:59:02;;;;;;;12.80;7.18;;;;;;;;;;5006406;28;20045;-75
2021/12/13 07:01:30;;;;;;;12.20;7.57;;;;;;;;;;5006519;28;20029;-76
2021/12/13 07:04:08;;;;;;;10.75;7.38;;;;;;;;;;5002791;28;20026;-75
2021/12/13 07:06:35;;;;;;;10.90;7.25;;;;;;;;;;5001401;28;20033;-74
2021/12/13 07:09:21;;;;;;;10.30;6.75;;;;;;;;;;4996205;28;20041;-73
2021/12/13 07:11:54;;;;;;;11.13;6.55;;;;;;;;;;5003370;28;20021;-74
2021/12/13 07:14:30;;;;;;;9.43;6.65;;;;;;;;;;5005799;28;20095;-73
2021/12/13 07:16:55;;;;;;;15.15;7.57;;;;;;;;;;5005387;28;20480;-74
2021/12/13 07:19:26;;;;;;;12.00;7.28;;;;;;;;;;5005417;28;20026;-75
2021/12/13 07:22:05;;;;;;;10.65;7.07;;;;;;;;;;5006904;28;20034;-74
2021/12/13 07:24:45;;;;;;;12.52;8.38;;;;;;;;;;5006479;28;20033;-74
2021/12/13 07:27:15;;;;;;;13.13;8.02;;;;;;;;;;5006436;28;20036;-75
2021/12/13 07:29:52;;;;;;;13.68;8.73;;;;;;;;;;5005503;28;20101;-74
2021/12/13 07:32:26;;;;;;;11.80;7.93;;;;;;;;;;5006225;28;20033;-74
2021/12/13 07:34:57;;;;;;;18.50;11.07;;;;;;;;;;5005787;28;20113;-74
2021/12/13 07:37:46;;;;;;;10.73;7.75;;;;;;;;;;5011769;28;20056;-74
2021/12/13 07:40:24;;;;;;;11.32;7.00;;;;;;;;;;4997455;28;20025;-74
2021/12/13 07:43:23;;;;;;;9.98;6.88;;;;;;;;;;5013763;28;20503;-74
2021/12/13 07:45:55;;;;;;;12.75;7.15;;;;;;;;;;5005952;28;20037;-74
2021/12/13 07:48:26;;;;;;;12.15;7.20;;;;;;;;;;5005212;28;20045;-74
2021/12/13 07:51:01;;;;;;;10.95;7.60;;;;;;;;;;5005957;28;20217;-74
2021/12/13 07:53:35;;;;;;;11.32;7.65;;;;;;;;;;5005355;28;20049;-74
2021/12/13 07:56:01;;;;;;;11.55;7.15;;;;;;;;;;5004548;28;20034;-75
2021/12/13 07:58:46;;;;;;;10.48;7.28;;;;;;;;;;5005119;28;20044;-73
2021/12/13 08:01:15;;;;;;;11.45;7.03;;;;;;;;;;5005766;28;20041;-74
2021/12/13 08:03:47;;;;;;;14.88;7.72;;;;;;;;;;5005952;28;20120;-74
2021/12/13 08:06:13;;;;;;;12.10;8.15;;;;;;;;;;5005202;28;20499;-74
2021/12/13 08:08:55;;;;;;;9.15;7.00;;;;;;;;;;5006578;28;20064;-74
2021/12/13 08:11:38;;;;;;;9.70;6.75;;;;;;;;;;5014031;28;20057;-74
2021/12/13 08:14:05;;;;;;;10.25;7.00;;;;;;;;;;5004926;28;20030;-74
2021/12/13 08:16:36;;;;;;;10.68;7.03;;;;;;;;;;5006418;28;20116;-74
2021/12/13 08:19:07;;;;;;;11.23;6.93;;;;;;;;;;5011009;28;20099;-74
2021/12/13 08:21:38;;;;;;;12.48;8.75;;;;;;;;;;5012218;28;20053;-74
2021/12/13 08:24:04;;;;;;;9.32;6.90;;;;;;;;;;5011650;28;20029;-74
2021/12/13 08:26:40;;;;;;;11.48;7.60;;;;;;;;;;5012082;28;20178;-74
2021/12/13 08:29:31;;;;;;;10.52;7.18;;;;;;;;;;5011786;28;20606;-75
2021/12/13 08:32:01;;;;;;;9.77;7.43;;;;;;;;;;5010866;28;20116;-74
2021/12/13 08:34:33;;;;;;;12.32;8.45;;;;;;;;;;5012775;28;20022;-74
2021/12/13 08:36:59;;;;;;;11.30;7.57;;;;;;;;;;5012155;28;20030;-74
2021/12/13 08:39:34;;;;;;;12.93;8.02;;;;;;;;;;5009139;28;20262;-74
2021/12/13 08:42:11;;;;;;;13.50;8.07;;;;;;;;;;5006826;28;20041;-75
2021/12/13 08:44:41;;;;;;;13.93;8.35;;;;;;;;;;5009210;28;20018;-76
2021/12/13 08:47:11;;;;;;;11.93;7.47;;;;;;;;;;5009734;28;20443;-75
2021/12/13 08:49:42;;;;;;;14.07;8.48;;;;;;;;;;5009003;28;20026;-73
2021/12/13 08:52:13;;;;;;;12.65;7.75;;;;;;;;;;5008572;28;20057;-74
2021/12/13 08:54:51;;;;;;;13.48;7.93;;;;;;;;;;5008336;28;20037;-76
2021/12/13 08:57:38;;;;;;;11.45;7.82;;;;;;;;;;5007745;28;20149;-74
2021/12/13 09:00:13;;;;;;;12.88;7.78;;;;;;;;;;5008072;28;20064;-73
2021/12/13 09:02:50;;;;;;;13.73;8.35;;;;;;;;;;5007508;28;20022;-74
2021/12/13 09:05:21;;;;;;;11.98;7.35;;;;;;;;;;5013895;28;20072;-74
2021/12/13 09:08:00;;;;;;;15.93;7.97;;;;;;;;;;5007930;28;20639;-73
2021/12/13 09:10:38;;;;;;;17.70;8.50;;;;;;;;;;5020893;22;20137;-72
2021/12/13 09:13:03;;;;;;;14.05;7.28;;;;;;;;;;5005797;28;20113;-73
2021/12/13 09:15:32;;;;;;;14.10;9.07;;;;;;;;;;5008631;28;20137;-72
2021/12/13 09:17:58;;;;;;;14.85;9.45;;;;;;;;;;5008632;28;20021;-72
2021/12/13 09:20:37;;;;;;;16.60;8.18;;;;;;;;;;5011181;28;20036;-72
2021/12/13 09:23:08;;;;;;;15.60;9.25;;;;;;;;;;5022579;28;20029;-73
2021/12/13 09:25:38;;;;;;;14.65;8.80;;;;;;;;;;5021082;28;20030;-71
2021/12/13 09:28:27;;;;;;;18.67;9.98;;;;;;;;;;5018195;28;20029;-72
2021/12/13 09:31:06;;;;;;;15.60;9.20;;;;;;;;;;5015042;28;20036;-72
2021/12/13 09:33:35;;;;;;;13.30;8.65;;;;;;;;;;5009601;28;20034;-71
2021/12/13 09:36:11;;;;;;;16.23;8.98;;;;;;;;;;5013000;28;20029;-72
2021/12/13 09:38:45;;;;;;;12.80;9.05;;;;;;;;;;4994235;28;20049;-73
2021/12/13 09:41:10;;;;;;;15.15;8.88;;;;;;;;;;5011745;28;20108;-71
2021/12/13 09:43:41;;;;;;;14.43;9.30;;;;;;;;;;5008424;28;20547;-71
2021/12/13 09:46:08;;;;;;;19.88;9.98;;;;;;;;;;5024909;28;20033;-72
2021/12/13 09:48:40;;;;;;;17.75;9.27;;;;;;;;;;5027863;28;20040;-73
2021/12/13 09:51:13;;;;;;;12.45;8.43;;;;;;;;;;5014967;28;20124;-71
2021/12/13 09:53:39;;;;;;;;;;;;;;;;;;5006018;28;20726;-72
2021/12/13 09:56:10;;;;;;;15.95;8.60;;;;;;;;;;5009286;28;19913;-71
2021/12/13 09:58:44;;;;;;;28.33;14.35;;;;;;;;;;5007440;28;20026;-71
2021/12/13 10:01:17;;;;;;;25.52;11.68;;;;;;;;;;5007714;28;20565;-71
2021/12/13 10:04:09;;;;;;;22.30;12.50;;;;;;;;;;5007931;28;20033;-70
2021/12/13 10:07:00;;;;;;;20.63;10.32;;;;;;;;;;5018098;28;20407;-71
2021/12/13 10:09:27;;;;;;;14.93;8.73;;;;;;;;;;5007724;28;20025;-71
2021/12/13 10:12:04;;;;;;;15.05;8.90;;;;;;;;;;5007109;28;20036;-71
2021/12/13 10:14:33;;;;;;;19.05;9.60;;;;;;;;;;5006919;28;20491;-71
2021/12/13 10:17:00;;;;;;;14.43;8.93;;;;;;;;;;5005989;28;20022;-71
2021/12/13 10:19:30;;;;;;;14.35;10.05;;;;;;;;;;5012870;28;20044;-71
2021/12/13 10:21:55;;;;;;;15.98;10.02;;;;;;;;;;5007451;28;20033;-71
2021/12/13 10:24:29;;;;;;;16.40;9.23;;;;;;;;;;5007689;28;20068;-72
2021/12/13 10:26:58;;;;;;;14.55;8.85;;;;;;;;;;5021776;28;20033;-72
2021/12/13 10:29:25;;;;;;;11.50;7.28;;;;;;;;;;5017615;28;20057;-71
2021/12/13 10:32:03;;;;;;;12.43;7.93;;;;;;;;;;5006986;28;20022;-71
2021/12/13 10:34:42;;;;;;;11.93;7.60;;;;;;;;;;5009125;28;20038;-71
2021/12/13 10:37:12;;;;;;;11.38;7.22;;;;;;;;;;5006775;28;20488;-72
2021/12/13 10:39:44;;;;;;;11.30;7.70;;;;;;;;;;4994666;28;20057;-71
2021/12/13 10:42:14;;;;;;;10.70;6.53;;;;;;;;;;5007812;28;20149;-72
2021/12/13 10:44:44;;;;;;;9.25;6.85;;;;;;;;;;5007457;28;20022;-71
2021/12/13 10:47:17;;;;;;;8.88;5.97;;;;;;;;;;5012095;28;20025;-71
2021/12/13 10:49:44;;;;;;;9.45;6.28;;;;;;;;;;5013346;28;20384;-71
2021/12/13 10:52:30;;;;;;;9.80;6.38;;;;;;;;;;5022622;28;20037;-71
2021/12/13 10:54:59;;;;;;;9.27;6.80;;;;;;;;;;5019279;28;20075;-71
2021/12/13 10:57:27;;;;;;;9.55;6.93;;;;;;;;;;5005628;28;20055;-71
2021/12/13 10:59:53;;;;;;;9.32;6.72;;;;;;;;;;5006876;28;20034;-72
2021/12/13 11:02:26;;;;;;;9.07;6.28;;;;;;;;;;5001784;28;20024;-71
2021/12/13 11:04:59;;;;;;;8.20;5.65;;;;;;;;;;5006744;28;20118;-71
2021/12/13 11:07:25;;;;;;;8.15;5.50;;;;;;;;;;5024494;28;20026;-72
2021/12/13 11:09:52;;;;;;;11.38;6.70;;;;;;;;;;5006598;28;20107;-71
2021/12/13 11:12:29;;;;;;;8.48;5.90;;;;;;;;;;5006699;28;20022;-72
2021/12/13 11:14:57;;;;;;;8.93;5.85;;;;;;;;;;5010341;28;20022;-71
2021/12/13 11:17:26;;;;;;;13.10;8.50;;;;;;;;;;5009380;28;20089;-72
2021/12/13 11:19:57;;;;;;;5.95;4.68;;;;;;;;;;5009313;28;20026;-72
2021/12/13 11:22:30;;;;;;;8.25;5.13;;;;;;;;;;5007970;28;20028;-71
2021/12/13 11:24:59;;;;;;;7.25;5.40;;;;;;;;;;5008540;28;20022;-72
2021/12/13 11:27:31;;;;;;;8.15;5.65;;;;;;;;;;5008163;28;20049;-72
2021/12/13 11:29:58;;;;;;;6.55;5.05;;;;;;;;;;5007999;28;20097;-73
2021/12/13 11:32:38;;;;;;;7.18;5.47;;;;;;;;;;5006970;28;20030;-72
2021/12/13 11:35:07;;;;;;;6.97;4.75;;;;;;;;;;5005650;28;20714;-71
2021/12/13 11:37:58;;;;;;;6.70;4.68;;;;;;;;;;5004565;28;20029;-72
2021/12/13 11:40:46;;;;;;;5.55;4.20;;;;;;;;;;5009883;28;20034;-71
2021/12/13 11:43:35;;;;;;;6.10;4.30;;;;;;;;;;5006685;28;20138;-73
2021/12/13 11:46:15;;;;;;;5.47;4.15;;;;;;;;;;5006319;28;20033;-72
2021/12/13 11:49:11;;;;;;;5.05;3.65;;;;;;;;;;5007125;28;20228;-72
2021/12/13 11:52:12;;;;;;;4.57;3.38;;;;;;;;;;5006955;28;20025;-72
2021/12/13 11:55:13;;;;;;;5.05;3.80;;;;;;;;;;5007768;28;20037;-73
2021/12/13 11:58:00;;;;;;;8.18;4.72;;;;;;;;;;5006955;28;20030;-72
2021/12/13 12:00:44;;;;;;;5.32;4.30;;;;;;;;;;5006789;28;20022;-72
2021/12/13 12:03:45;;;;;;;6.40;4.20;;;;;;;;;;5006294;28;20033;-73
2021/12/13 12:06:48;;;;;;;9.95;5.68;;;;;;;;;;4995503;28;20030;-72
2021/12/13 12:09:22;;;;;;;5.33;4.60;;;;;;;;;;5006045;28;20044;-72
2021/12/13 12:12:12;;;;;;;5.70;4.65;;;;;;;;;;5005853;28;20301;-73
2021/12/13 12:14:38;;;;;;;3.75;3.15;;;;;;;;;;5006328;28;20061;-72
2021/12/13 12:17:05;;;;;;;5.68;4.13;;;;;;;;;;5005782;28;20049;-72
2021/12/13 12:19:36;;;;;;;5.57;4.43;;;;;;;;;;5005377;28;20081;-72
2021/12/13 12:22:15;;;;;;;5.15;3.95;;;;;;;;;;5006357;28;20088;-72
2021/12/13 12:24:51;;;;;;;6.57;4.45;;;;;;;;;;5006472;28;20030;-72
2021/12/13 12:27:24;;;;;;;4.32;3.38;;;;;;;;;;5006328;28;20048;-72
2021/12/13 12:29:55;;;;;;;7.20;3.92;;;;;;;;;;5006092;28;20033;-71
2021/12/13 12:32:44;;;;;;;6.78;3.95;;;;;;;;;;5005651;28;20034;-72
2021/12/13 12:35:13;;;;;;;6.53;4.35;;;;;;;;;;5005723;28;20050;-72
2021/12/13 12:38:07;;;;;;;6.93;4.95;;;;;;;;;;5006065;28;20085;-72
2021/12/13 12:40:57;;;;;;;5.22;3.80;;;;;;;;;;5005707;28;20472;-72
2021/12/13 12:43:25;;;;;;;6.82;4.95;;;;;;;;;;5005542;28;20026;-72
2021/12/13 12:45:57;;;;;;;5.93;4.18;;;;;;;;;;5005441;28;20076;-72
2021/12/13 12:48:25;;;;;;;3.70;3.30;;;;;;;;;;5005572;28;20030;-72
2021/12/13 12:51:17;;;;;;;8.25;5.43;;;;;;;;;;5006633;28;20030;-72
2021/12/13 12:54:03;;;;;;;3.92;3.35;;;;;;;;;;5005334;28;20018;-71
2021/12/13 12:56:34;;;;;;;5.80;4.00;;;;;;;;;;5005753;28;20033;-71
2021/12/13 12:59:05;;;;;;;3.60;2.67;;;;;;;;;;5005221;28;20030;-72
2021/12/13 13:01:42;;;;;;;5.68;4.78;;;;;;;;;;5005572;28;20514;-72
2021/12/13 13:04:13;;;;;;;9.25;4.35;;;;;;;;;;5008530;28;20113;-72
2021/12/13 13:06:52;;;;;;;8.85;4.88;;;;;;;;;;4988984;28;20041;-72
2021/12/13 13:09:18;;;;;;;6.90;4.40;;;;;;;;;;4997222;28;20037;-72
2021/12/13 13:11:50;;;;;;;4.93;4.30;;;;;;;;;;5028871;28;20717;-73
2021/12/13 13:14:22;;;;;;;4.13;3.15;;;;;;;;;;5028224;28;20057;-71
2021/12/13 13:16:56;;;;;;;4.38;3.33;;;;;;;;;;5019234;28;20033;-72
2021/12/13 13:19:34;;;;;;;4.70;3.35;;;;;;;;;;5007820;28;20036;-72
2021/12/13 13:22:04;;;;;;;4.82;3.55;;;;;;;;;;5008656;28;20028;-73
2021/12/13 13:24:30;;;;;;;3.28;2.63;;;;;;;;;;5009320;28;20065;-72
2021/12/13 13:26:56;;;;;;;3.58;2.67;;;;;;;;;;5008689;28;20491;-72
2021/12/13 13:29:22;;;;;;;3.45;2.80;;;;;;;;;;5008145;28;20037;-72
2021/12/13 13:31:50;;;;;;;4.07;2.63;;;;;;;;;;5006816;28;20072;-72
2021/12/13 13:34:21;;;;;;;4.10;3.45;;;;;;;;;;4999916;28;20026;-72
2021/12/13 13:36:56;;;;;;;3.95;3.13;;;;;;;;;;5008412;28;20050;-72
2021/12/13 13:39:27;;;;;;;4.40;3.05;;;;;;;;;;4988483;28;20411;-72
2021/12/13 13:42:04;;;;;;;5.43;3.05;;;;;;;;;;4989252;28;20030;-72
2021/12/13 13:44:36;;;;;;;4.00;3.38;;;;;;;;;;4989074;28;20499;-73
2021/12/13 13:47:08;;;;;;;5.40;3.38;;;;;;;;;;5014958;28;20036;-71
2021/12/13 13:49:34;;;;;;;6.00;3.70;;;;;;;;;;5010921;28;20087;-73
2021/12/13 13:52:19;;;;;;;4.38;3.50;;;;;;;;;;5004484;28;20068;-73
2021/12/13 13:54:46;;;;;;;5.55;3.38;;;;;;;;;;5005251;28;20065;-73
2021/12/13 13:57:17;;;;;;;5.88;3.83;;;;;;;;;;5006288;28;20025;-74
2021/12/13 13:59:43;;;;;;;5.75;3.67;;;;;;;;;;5008899;28;20037;-73
2021/12/13 14:02:11;;;;;;;5.22;3.50;;;;;;;;;;5017844;28;20280;-73
2021/12/13 14:04:40;;;;;;;5.90;3.75;;;;;;;;;;5021232;28;20048;-73
2021/12/13 14:07:15;;;;;;;14.70;9.93;;;;;;;;;;5007752;28;20033;-72
2021/12/13 14:09:45;;;;;;;32.70;21.27;;;;;;;;;;5010567;28;20056;-73
2021/12/13 14:12:25;;;;;;;8.18;5.03;;;;;;;;;;5015621;28;20025;-72
2021/12/13 14:14:54;;;;;;;6.78;5.82;;;;;;;;;;5027376;28;20395;-72
2021/12/13 14:17:40;;;;;;;6.78;5.90;;;;;;;;;;5025088;28;20643;-72
2021/12/13 14:20:20;;;;;;;8.90;6.72;;;;;;;;;;5007422;28;20021;-73
2021/12/13 14:22:51;;;;;;;6.70;4.80;;;;;;;;;;5018514;28;20037;-72
2021/12/13 14:25:32;;;;;;;5.88;4.70;;;;;;;;;;5011618;28;20068;-73
2021/12/13 14:27:58;;;;;;;6.40;5.75;;;;;;;;;;5009086;28;20026;-73
2021/12/13 14:30:35;;;;;;;5.85;4.60;;;;;;;;;;5019057;28;20550;-72
2021/12/13 14:33:01;;;;;;;8.60;6.38;;;;;;;;;;5024245;28;20071;-72
2021/12/13 14:35:31;;;;;;;8.00;6.78;;;;;;;;;;5027412;28;20052;-73
2021/12/13 14:38:08;;;;;;;7.47;5.97;;;;;;;;;;5030797;28;20112;-73
2021/12/13 14:40:55;;;;;;;10.45;6.35;;;;;;;;;;5031535;28;20517;-73
2021/12/13 14:43:23;;;;;;;8.85;5.88;;;;;;;;;;5029177;28;20034;-74
2021/12/13 14:45:51;;;;;;;8.68;6.47;;;;;;;;;;5008057;28;20398;-72
2021/12/13 14:48:20;;;;;;;8.38;5.60;;;;;;;;;;5010903;28;20478;-72
2021/12/13 14:50:59;;;;;;;6.63;5.15;;;;;;;;;;5026160;28;20021;-72
2021/12/13 14:53:32;;;;;;;7.18;5.57;;;;;;;;;;5026265;28;20379;-72
2021/12/13 14:56:03;;;;;;;8.68;6.03;;;;;;;;;;5026232;28;20036;-72
2021/12/13 14:58:41;;;;;;;9.77;5.93;;;;;;;;;;5026217;28;20033;-72
2021/12/13 15:01:11;;;;;;;8.63;5.13;;;;;;;;;;5026464;28;20105;-72
2021/12/13 15:03:45;;;;;;;6.68;5.30;;;;;;;;;;5025241;28;20025;-72
2021/12/13 15:06:14;;;;;;;7.68;5.57;;;;;;;;;;5026584;28;20033;-72
2021/12/13 15:08:46;;;;;;;8.75;5.97;;;;;;;;;;5037992;22;20029;-73
2021/12/13 15:11:30;;;;;;;22.50;13.57;;;;;;;;;;4985142;28;20038;-74
2021/12/13 15:14:00;;;;;;;36.35;22.50;;;;;;;;;;4986178;28;20018;-74
2021/12/13 15:16:34;;;;;;;14.68;9.35;;;;;;;;;;4980541;28;20031;-73
2021/12/13 15:19:05;;;;;;;11.38;8.07;;;;;;;;;;4967059;28;20391;-73
2021/12/13 15:21:40;;;;;;;7.32;5.75;;;;;;;;;;4972591;28;20037;-73
2021/12/13 15:24:06;;;;;;;8.50;6.32;;;;;;;;;;4987632;28;20026;-73